sensor_id;sensor_type;location;lat;lon;timestamp;P1;durP1;ratioP1;P2;durP2;ratioP2
72413;SDS011;60995;52.154;4.498;2023-08-17T00:00:27;11.48;;;4.20;;
72413;SDS011;60995;52.154;4.498;2023-08-17T00:02:43;10.45;;;4.70;;
72413;SDS011;60995;52.154;4.498;2023-08-17T00:05:00;10.55;;;4.57;;
72413;SDS011;60995;52.154;4.498;2023-08-17T00:07:16;13.02;;;4.50;;
72413;SDS011;60995;52.154;4.498;2023-08-17T00:09:35;13.93;;;4.10;;
72413;SDS011;60995;52.154;4.498;2023-08-17T00:11:51;11.65;;;3.78;;
72413;SDS011;60995;52.154;4.498;2023-08-17T00:14:07;10.27;;;3.55;;
72413;SDS011;60995;52.154;4.498;2023-08-17T00:16:23;8.98;;;3.42;;
72413;SDS011;60995;52.154;4.498;2023-08-17T00:18:40;9.02;;;2.83;;
72413;SDS011;60995;52.154;4.498;2023-08-17T00:20:57;9.73;;;2.75;;
72413;SDS011;60995;52.154;4.498;2023-08-17T00:23:13;8.25;;;2.60;;
72413;SDS011;60995;52.154;4.498;2023-08-17T00:25:29;9.98;;;2.45;;
72413;SDS011;60995;52.154;4.498;2023-08-17T00:27:46;7.57;;;2.20;;
72413;SDS011;60995;52.154;4.498;2023-08-17T00:30:02;8.25;;;2.25;;
72413;SDS011;60995;52.154;4.498;2023-08-17T00:32:19;8.05;;;2.10;;
72413;SDS011;60995;52.154;4.498;2023-08-17T00:34:36;11.18;;;2.30;;
72413;SDS011;60995;52.154;4.498;2023-08-17T00:36:52;12.85;;;2.22;;
72413;SDS011;60995;52.154;4.498;2023-08-17T00:39:08;9.80;;;2.42;;
72413;SDS011;60995;52.154;4.498;2023-08-17T00:41:24;9.02;;;2.08;;
72413;SDS011;60995;52.154;4.498;2023-08-17T00:43:41;9.55;;;2.03;;
72413;SDS011;60995;52.154;4.498;2023-08-17T00:45:57;6.93;;;1.80;;
72413;SDS011;60995;52.154;4.498;2023-08-17T00:48:14;9.18;;;2.30;;
72413;SDS011;60995;52.154;4.498;2023-08-17T00:50:31;6.80;;;2.10;;
72413;SDS011;60995;52.154;4.498;2023-08-17T00:52:49;6.07;;;2.22;;
72413;SDS011;60995;52.154;4.498;2023-08-17T00:55:08;8.48;;;2.15;;
72413;SDS011;60995;52.154;4.498;2023-08-17T00:57:27;11.52;;;2.00;;
72413;SDS011;60995;52.154;4.498;2023-08-17T00:59:44;8.85;;;2.20;;
72413;SDS011;60995;52.154;4.498;2023-08-17T01:02:01;7.30;;;2.30;;
72413;SDS011;60995;52.154;4.498;2023-08-17T01:04:18;15.27;;;2.45;;
72413;SDS011;60995;52.154;4.498;2023-08-17T01:06:34;6.70;;;2.10;;
72413;SDS011;60995;52.154;4.498;2023-08-17T01:08:50;11.10;;;2.53;;
72413;SDS011;60995;52.154;4.498;2023-08-17T01:11:26;10.20;;;2.72;;
72413;SDS011;60995;52.154;4.498;2023-08-17T01:16:25;8.10;;;2.50;;
72413;SDS011;60995;52.154;4.498;2023-08-17T01:18:47;8.82;;;2.60;;
72413;SDS011;60995;52.154;4.498;2023-08-17T01:21:08;10.45;;;2.72;;
72413;SDS011;60995;52.154;4.498;2023-08-17T01:23:28;7.28;;;2.67;;
72413;SDS011;60995;52.154;4.498;2023-08-17T01:25:44;8.38;;;2.65;;
72413;SDS011;60995;52.154;4.498;2023-08-17T01:28:01;10.73;;;2.40;;
72413;SDS011;60995;52.154;4.498;2023-08-17T01:30:19;7.05;;;2.40;;
72413;SDS011;60995;52.154;4.498;2023-08-17T01:37:53;10.43;;;2.70;;
72413;SDS011;60995;52.154;4.498;2023-08-17T01:40:19;7.25;;;2.50;;
72413;SDS011;60995;52.154;4.498;2023-08-17T01:42:36;7.88;;;3.00;;
72413;SDS011;60995;52.154;4.498;2023-08-17T01:44:55;8.73;;;2.58;;
72413;SDS011;60995;52.154;4.498;2023-08-17T01:47:11;10.57;;;3.05;;
72413;SDS011;60995;52.154;4.498;2023-08-17T01:49:27;10.07;;;3.13;;
72413;SDS011;60995;52.154;4.498;2023-08-17T01:51:44;13.55;;;3.13;;
72413;SDS011;60995;52.154;4.498;2023-08-17T01:54:00;10.13;;;3.40;;
72413;SDS011;60995;52.154;4.498;2023-08-17T01:56:16;11.07;;;3.33;;
72413;SDS011;60995;52.154;4.498;2023-08-17T01:58:33;12.27;;;3.90;;
72413;SDS011;60995;52.154;4.498;2023-08-17T02:00:49;8.70;;;3.47;;
72413;SDS011;60995;52.154;4.498;2023-08-17T02:03:06;10.55;;;3.97;;
72413;SDS011;60995;52.154;4.498;2023-08-17T02:05:22;9.40;;;4.07;;
72413;SDS011;60995;52.154;4.498;2023-08-17T02:07:38;10.45;;;4.10;;
72413;SDS011;60995;52.154;4.498;2023-08-17T02:09:54;10.38;;;4.40;;
72413;SDS011;60995;52.154;4.498;2023-08-17T02:12:11;10.73;;;4.43;;
72413;SDS011;60995;52.154;4.498;2023-08-17T02:14:27;11.27;;;4.57;;
72413;SDS011;60995;52.154;4.498;2023-08-17T02:16:43;12.05;;;4.68;;
72413;SDS011;60995;52.154;4.498;2023-08-17T02:18:59;11.80;;;4.70;;
72413;SDS011;60995;52.154;4.498;2023-08-17T02:21:15;10.05;;;4.60;;
72413;SDS011;60995;52.154;4.498;2023-08-17T02:23:32;9.82;;;4.47;;
72413;SDS011;60995;52.154;4.498;2023-08-17T02:25:48;11.30;;;4.90;;
72413;SDS011;60995;52.154;4.498;2023-08-17T02:28:04;11.07;;;5.03;;
72413;SDS011;60995;52.154;4.498;2023-08-17T02:30:21;10.48;;;4.85;;
72413;SDS011;60995;52.154;4.498;2023-08-17T02:32:37;11.82;;;5.07;;
72413;SDS011;60995;52.154;4.498;2023-08-17T02:34:53;11.32;;;4.90;;
72413;SDS011;60995;52.154;4.498;2023-08-17T02:37:10;16.63;;;5.03;;
72413;SDS011;60995;52.154;4.498;2023-08-17T02:39:26;11.70;;;4.90;;
72413;SDS011;60995;52.154;4.498;2023-08-17T02:41:43;8.13;;;4.57;;
72413;SDS011;60995;52.154;4.498;2023-08-17T02:44:01;10.23;;;4.70;;
72413;SDS011;60995;52.154;4.498;2023-08-17T02:46:17;12.65;;;4.93;;
72413;SDS011;60995;52.154;4.498;2023-08-17T02:48:34;14.32;;;4.35;;
72413;SDS011;60995;52.154;4.498;2023-08-17T02:50:50;10.13;;;4.25;;
72413;SDS011;60995;52.154;4.498;2023-08-17T02:53:06;10.65;;;4.25;;
72413;SDS011;60995;52.154;4.498;2023-08-17T02:55:22;12.50;;;4.07;;
72413;SDS011;60995;52.154;4.498;2023-08-17T02:57:39;12.32;;;4.13;;
72413;SDS011;60995;52.154;4.498;2023-08-17T02:59:55;11.32;;;3.72;;
72413;SDS011;60995;52.154;4.498;2023-08-17T03:02:11;11.35;;;4.38;;
72413;SDS011;60995;52.154;4.498;2023-08-17T03:04:27;16.67;;;3.83;;
72413;SDS011;60995;52.154;4.498;2023-08-17T03:06:44;14.95;;;3.53;;
72413;SDS011;60995;52.154;4.498;2023-08-17T03:09:00;9.25;;;3.55;;
72413;SDS011;60995;52.154;4.498;2023-08-17T03:11:16;9.98;;;3.50;;
72413;SDS011;60995;52.154;4.498;2023-08-17T03:13:33;10.55;;;3.60;;
72413;SDS011;60995;52.154;4.498;2023-08-17T03:15:49;9.93;;;3.65;;
72413;SDS011;60995;52.154;4.498;2023-08-17T03:18:06;12.15;;;3.42;;
72413;SDS011;60995;52.154;4.498;2023-08-17T03:20:22;12.32;;;3.55;;
72413;SDS011;60995;52.154;4.498;2023-08-17T03:22:38;8.27;;;3.42;;
72413;SDS011;60995;52.154;4.498;2023-08-17T03:24:55;14.30;;;3.65;;
72413;SDS011;60995;52.154;4.498;2023-08-17T03:27:11;8.85;;;3.28;;
72413;SDS011;60995;52.154;4.498;2023-08-17T03:29:27;8.93;;;3.10;;
72413;SDS011;60995;52.154;4.498;2023-08-17T03:31:44;11.15;;;3.53;;
72413;SDS011;60995;52.154;4.498;2023-08-17T03:34:00;10.60;;;3.80;;
72413;SDS011;60995;52.154;4.498;2023-08-17T03:36:16;9.50;;;3.13;;
72413;SDS011;60995;52.154;4.498;2023-08-17T03:38:33;10.65;;;3.28;;
72413;SDS011;60995;52.154;4.498;2023-08-17T03:40:49;10.98;;;3.97;;
72413;SDS011;60995;52.154;4.498;2023-08-17T03:43:05;7.25;;;3.40;;
72413;SDS011;60995;52.154;4.498;2023-08-17T03:45:22;9.57;;;3.28;;
72413;SDS011;60995;52.154;4.498;2023-08-17T03:47:38;10.80;;;2.85;;
72413;SDS011;60995;52.154;4.498;2023-08-17T03:49:54;10.68;;;3.33;;
72413;SDS011;60995;52.154;4.498;2023-08-17T03:52:10;9.88;;;2.90;;
72413;SDS011;60995;52.154;4.498;2023-08-17T03:54:27;7.72;;;2.90;;
72413;SDS011;60995;52.154;4.498;2023-08-17T03:56:43;10.77;;;3.35;;
72413;SDS011;60995;52.154;4.498;2023-08-17T03:58:59;12.07;;;3.13;;
72413;SDS011;60995;52.154;4.498;2023-08-17T04:01:15;11.23;;;3.10;;
72413;SDS011;60995;52.154;4.498;2023-08-17T04:03:32;12.23;;;3.35;;
72413;SDS011;60995;52.154;4.498;2023-08-17T04:05:48;12.15;;;3.30;;
72413;SDS011;60995;52.154;4.498;2023-08-17T04:08:04;12.90;;;3.75;;
72413;SDS011;60995;52.154;4.498;2023-08-17T04:10:21;12.73;;;3.30;;
72413;SDS011;60995;52.154;4.498;2023-08-17T04:12:37;8.32;;;2.97;;
72413;SDS011;60995;52.154;4.498;2023-08-17T04:14:53;10.38;;;3.40;;
72413;SDS011;60995;52.154;4.498;2023-08-17T04:17:09;14.50;;;3.50;;
72413;SDS011;60995;52.154;4.498;2023-08-17T04:19:26;7.88;;;3.33;;
72413;SDS011;60995;52.154;4.498;2023-08-17T04:21:42;10.48;;;3.80;;
72413;SDS011;60995;52.154;4.498;2023-08-17T04:23:58;10.73;;;3.88;;
72413;SDS011;60995;52.154;4.498;2023-08-17T04:26:14;15.73;;;3.63;;
72413;SDS011;60995;52.154;4.498;2023-08-17T04:28:31;11.77;;;3.72;;
72413;SDS011;60995;52.154;4.498;2023-08-17T04:30:47;10.48;;;3.53;;
72413;SDS011;60995;52.154;4.498;2023-08-17T04:33:03;11.90;;;3.67;;
72413;SDS011;60995;52.154;4.498;2023-08-17T04:35:20;11.10;;;3.78;;
72413;SDS011;60995;52.154;4.498;2023-08-17T04:37:37;10.80;;;3.40;;
72413;SDS011;60995;52.154;4.498;2023-08-17T04:39:53;7.95;;;3.20;;
72413;SDS011;60995;52.154;4.498;2023-08-17T04:42:09;9.23;;;3.30;;
72413;SDS011;60995;52.154;4.498;2023-08-17T04:44:26;9.73;;;3.53;;
72413;SDS011;60995;52.154;4.498;2023-08-17T04:46:42;10.88;;;3.20;;
72413;SDS011;60995;52.154;4.498;2023-08-17T04:48:58;11.18;;;3.38;;
72413;SDS011;60995;52.154;4.498;2023-08-17T04:51:15;9.48;;;2.83;;
72413;SDS011;60995;52.154;4.498;2023-08-17T04:53:31;12.30;;;3.10;;
72413;SDS011;60995;52.154;4.498;2023-08-17T04:55:47;9.23;;;2.67;;
72413;SDS011;60995;52.154;4.498;2023-08-17T04:58:04;12.27;;;2.65;;
72413;SDS011;60995;52.154;4.498;2023-08-17T05:00:20;9.93;;;2.58;;
72413;SDS011;60995;52.154;4.498;2023-08-17T05:02:43;10.05;;;2.90;;
72413;SDS011;60995;52.154;4.498;2023-08-17T05:04:59;7.88;;;2.65;;
72413;SDS011;60995;52.154;4.498;2023-08-17T05:07:15;10.13;;;3.15;;
72413;SDS011;60995;52.154;4.498;2023-08-17T05:09:32;10.73;;;2.90;;
72413;SDS011;60995;52.154;4.498;2023-08-17T05:11:48;8.80;;;2.58;;
72413;SDS011;60995;52.154;4.498;2023-08-17T05:14:04;8.98;;;2.50;;
72413;SDS011;60995;52.154;4.498;2023-08-17T05:16:20;6.63;;;2.70;;
72413;SDS011;60995;52.154;4.498;2023-08-17T05:18:37;10.65;;;3.22;;
72413;SDS011;60995;52.154;4.498;2023-08-17T05:20:54;8.68;;;3.03;;
72413;SDS011;60995;52.154;4.498;2023-08-17T05:23:10;7.93;;;2.90;;
72413;SDS011;60995;52.154;4.498;2023-08-17T05:25:27;9.73;;;3.38;;
72413;SDS011;60995;52.154;4.498;2023-08-17T05:27:45;8.60;;;3.25;;
72413;SDS011;60995;52.154;4.498;2023-08-17T05:30:01;6.93;;;3.20;;
72413;SDS011;60995;52.154;4.498;2023-08-17T05:32:17;9.30;;;3.42;;
72413;SDS011;60995;52.154;4.498;2023-08-17T05:34:34;9.80;;;3.25;;
72413;SDS011;60995;52.154;4.498;2023-08-17T05:36:50;8.68;;;3.28;;
72413;SDS011;60995;52.154;4.498;2023-08-17T05:39:06;8.98;;;3.60;;
72413;SDS011;60995;52.154;4.498;2023-08-17T05:41:22;10.55;;;3.20;;
72413;SDS011;60995;52.154;4.498;2023-08-17T05:43:39;10.93;;;3.28;;
72413;SDS011;60995;52.154;4.498;2023-08-17T05:45:56;13.15;;;3.50;;
72413;SDS011;60995;52.154;4.498;2023-08-17T05:48:15;8.00;;;3.13;;
72413;SDS011;60995;52.154;4.498;2023-08-17T05:50:31;8.70;;;3.22;;
72413;SDS011;60995;52.154;4.498;2023-08-17T05:52:47;8.98;;;3.15;;
72413;SDS011;60995;52.154;4.498;2023-08-17T05:55:05;7.65;;;2.97;;
72413;SDS011;60995;52.154;4.498;2023-08-17T05:57:21;9.88;;;3.00;;
72413;SDS011;60995;52.154;4.498;2023-08-17T05:59:38;8.20;;;3.25;;
72413;SDS011;60995;52.154;4.498;2023-08-17T06:01:54;11.48;;;3.00;;
72413;SDS011;60995;52.154;4.498;2023-08-17T06:04:11;9.80;;;3.25;;
72413;SDS011;60995;52.154;4.498;2023-08-17T06:06:27;10.02;;;3.00;;
72413;SDS011;60995;52.154;4.498;2023-08-17T06:08:43;11.15;;;3.53;;
72413;SDS011;60995;52.154;4.498;2023-08-17T06:11:00;8.00;;;2.95;;
72413;SDS011;60995;52.154;4.498;2023-08-17T06:13:16;7.85;;;2.80;;
72413;SDS011;60995;52.154;4.498;2023-08-17T06:15:32;8.95;;;2.50;;
72413;SDS011;60995;52.154;4.498;2023-08-17T06:17:49;7.90;;;2.83;;
72413;SDS011;60995;52.154;4.498;2023-08-17T06:20:06;8.75;;;2.70;;
72413;SDS011;60995;52.154;4.498;2023-08-17T06:22:25;8.90;;;3.10;;
72413;SDS011;60995;52.154;4.498;2023-08-17T06:24:41;9.13;;;3.30;;
72413;SDS011;60995;52.154;4.498;2023-08-17T06:26:58;10.80;;;3.20;;
72413;SDS011;60995;52.154;4.498;2023-08-17T06:29:14;11.35;;;3.17;;
72413;SDS011;60995;52.154;4.498;2023-08-17T06:31:30;12.70;;;3.72;;
72413;SDS011;60995;52.154;4.498;2023-08-17T06:33:46;9.15;;;3.53;;
72413;SDS011;60995;52.154;4.498;2023-08-17T06:36:03;12.48;;;3.50;;
72413;SDS011;60995;52.154;4.498;2023-08-17T06:38:19;12.63;;;3.33;;
72413;SDS011;60995;52.154;4.498;2023-08-17T06:40:35;10.55;;;3.83;;
72413;SDS011;60995;52.154;4.498;2023-08-17T06:42:52;8.98;;;3.72;;
72413;SDS011;60995;52.154;4.498;2023-08-17T06:45:09;9.18;;;3.28;;
72413;SDS011;60995;52.154;4.498;2023-08-17T06:47:26;9.75;;;3.40;;
72413;SDS011;60995;52.154;4.498;2023-08-17T06:49:42;11.38;;;3.50;;
72413;SDS011;60995;52.154;4.498;2023-08-17T06:51:58;9.13;;;2.75;;
72413;SDS011;60995;52.154;4.498;2023-08-17T06:54:15;11.18;;;2.88;;
72413;SDS011;60995;52.154;4.498;2023-08-17T06:56:31;9.27;;;3.70;;
72413;SDS011;60995;52.154;4.498;2023-08-17T06:58:48;11.82;;;3.30;;
72413;SDS011;60995;52.154;4.498;2023-08-17T07:01:04;10.15;;;3.30;;
72413;SDS011;60995;52.154;4.498;2023-08-17T07:03:20;7.93;;;3.05;;
72413;SDS011;60995;52.154;4.498;2023-08-17T07:05:36;15.95;;;3.33;;
72413;SDS011;60995;52.154;4.498;2023-08-17T07:07:53;10.43;;;4.10;;
72413;SDS011;60995;52.154;4.498;2023-08-17T07:10:10;8.55;;;3.13;;
72413;SDS011;60995;52.154;4.498;2023-08-17T07:12:26;11.38;;;3.53;;
72413;SDS011;60995;52.154;4.498;2023-08-17T07:14:44;11.35;;;2.92;;
72413;SDS011;60995;52.154;4.498;2023-08-17T07:17:00;12.65;;;3.13;;
72413;SDS011;60995;52.154;4.498;2023-08-17T07:19:16;11.68;;;3.08;;
72413;SDS011;60995;52.154;4.498;2023-08-17T07:21:32;12.60;;;2.92;;
72413;SDS011;60995;52.154;4.498;2023-08-17T07:23:50;8.02;;;2.10;;
72413;SDS011;60995;52.154;4.498;2023-08-17T07:26:07;8.93;;;2.10;;
72413;SDS011;60995;52.154;4.498;2023-08-17T07:28:23;9.27;;;2.10;;
72413;SDS011;60995;52.154;4.498;2023-08-17T07:30:39;7.80;;;2.40;;
72413;SDS011;60995;52.154;4.498;2023-08-17T07:32:56;6.30;;;2.63;;
72413;SDS011;60995;52.154;4.498;2023-08-17T07:35:12;6.47;;;2.50;;
72413;SDS011;60995;52.154;4.498;2023-08-17T07:37:28;6.60;;;2.75;;
72413;SDS011;60995;52.154;4.498;2023-08-17T07:39:48;9.68;;;2.60;;
72413;SDS011;60995;52.154;4.498;2023-08-17T07:42:05;11.90;;;2.58;;
72413;SDS011;60995;52.154;4.498;2023-08-17T07:44:21;6.90;;;2.85;;
72413;SDS011;60995;52.154;4.498;2023-08-17T07:46:37;8.55;;;2.08;;
72413;SDS011;60995;52.154;4.498;2023-08-17T07:48:54;7.35;;;2.60;;
72413;SDS011;60995;52.154;4.498;2023-08-17T07:51:10;8.23;;;2.40;;
72413;SDS011;60995;52.154;4.498;2023-08-17T07:53:26;8.80;;;2.50;;
72413;SDS011;60995;52.154;4.498;2023-08-17T07:55:42;6.90;;;1.77;;
72413;SDS011;60995;52.154;4.498;2023-08-17T07:57:59;6.25;;;1.85;;
72413;SDS011;60995;52.154;4.498;2023-08-17T08:00:15;7.30;;;2.30;;
72413;SDS011;60995;52.154;4.498;2023-08-17T08:02:32;7.10;;;2.00;;
72413;SDS011;60995;52.154;4.498;2023-08-17T08:04:48;7.00;;;1.85;;
72413;SDS011;60995;52.154;4.498;2023-08-17T08:07:05;6.35;;;1.98;;
72413;SDS011;60995;52.154;4.498;2023-08-17T08:09:22;7.20;;;1.77;;
72413;SDS011;60995;52.154;4.498;2023-08-17T08:11:38;5.43;;;1.48;;
72413;SDS011;60995;52.154;4.498;2023-08-17T08:13:54;17.75;;;1.90;;
72413;SDS011;60995;52.154;4.498;2023-08-17T08:16:10;6.53;;;2.17;;
72413;SDS011;60995;52.154;4.498;2023-08-17T08:18:26;7.22;;;1.85;;
72413;SDS011;60995;52.154;4.498;2023-08-17T08:20:43;6.35;;;1.77;;
72413;SDS011;60995;52.154;4.498;2023-08-17T08:22:59;8.60;;;2.25;;
72413;SDS011;60995;52.154;4.498;2023-08-17T08:25:15;7.75;;;2.05;;
72413;SDS011;60995;52.154;4.498;2023-08-17T08:27:32;10.02;;;5.28;;
72413;SDS011;60995;52.154;4.498;2023-08-17T08:29:48;10.05;;;2.70;;
72413;SDS011;60995;52.154;4.498;2023-08-17T08:32:04;8.00;;;2.00;;
72413;SDS011;60995;52.154;4.498;2023-08-17T08:34:21;7.57;;;1.70;;
72413;SDS011;60995;52.154;4.498;2023-08-17T08:36:37;8.85;;;2.15;;
72413;SDS011;60995;52.154;4.498;2023-08-17T08:38:53;13.35;;;5.95;;
72413;SDS011;60995;52.154;4.498;2023-08-17T08:41:10;13.68;;;6.35;;
72413;SDS011;60995;52.154;4.498;2023-08-17T08:43:27;11.07;;;3.00;;
72413;SDS011;60995;52.154;4.498;2023-08-17T08:45:44;8.13;;;2.30;;
72413;SDS011;60995;52.154;4.498;2023-08-17T08:48:02;9.55;;;2.30;;
72413;SDS011;60995;52.154;4.498;2023-08-17T08:50:20;9.73;;;2.40;;
72413;SDS011;60995;52.154;4.498;2023-08-17T08:52:44;7.68;;;2.10;;
72413;SDS011;60995;52.154;4.498;2023-08-17T08:55:14;5.18;;;1.75;;
72413;SDS011;60995;52.154;4.498;2023-08-17T08:57:35;5.82;;;1.80;;
72413;SDS011;60995;52.154;4.498;2023-08-17T08:59:53;8.70;;;2.30;;
72413;SDS011;60995;52.154;4.498;2023-08-17T09:02:14;7.55;;;1.60;;
72413;SDS011;60995;52.154;4.498;2023-08-17T09:04:32;9.23;;;2.70;;
72413;SDS011;60995;52.154;4.498;2023-08-17T09:06:48;8.55;;;2.20;;
72413;SDS011;60995;52.154;4.498;2023-08-17T09:09:06;10.65;;;2.20;;
72413;SDS011;60995;52.154;4.498;2023-08-17T09:11:24;7.95;;;1.70;;
72413;SDS011;60995;52.154;4.498;2023-08-17T09:13:41;6.57;;;1.70;;
72413;SDS011;60995;52.154;4.498;2023-08-17T09:15:57;7.15;;;1.98;;
72413;SDS011;60995;52.154;4.498;2023-08-17T09:18:17;8.15;;;1.90;;
72413;SDS011;60995;52.154;4.498;2023-08-17T09:22:55;8.98;;;2.05;;
72413;SDS011;60995;52.154;4.498;2023-08-17T09:25:22;11.07;;;2.00;;
72413;SDS011;60995;52.154;4.498;2023-08-17T09:27:39;5.70;;;1.80;;
72413;SDS011;60995;52.154;4.498;2023-08-17T09:30:06;7.53;;;1.88;;
72413;SDS011;60995;52.154;4.498;2023-08-17T09:32:25;7.03;;;2.15;;
72413;SDS011;60995;52.154;4.498;2023-08-17T09:34:47;6.80;;;1.92;;
72413;SDS011;60995;52.154;4.498;2023-08-17T09:37:05;9.15;;;1.75;;
72413;SDS011;60995;52.154;4.498;2023-08-17T09:39:21;7.90;;;2.03;;
72413;SDS011;60995;52.154;4.498;2023-08-17T09:41:38;8.18;;;1.90;;
72413;SDS011;60995;52.154;4.498;2023-08-17T09:43:57;9.60;;;2.00;;
72413;SDS011;60995;52.154;4.498;2023-08-17T09:46:14;6.15;;;1.73;;
72413;SDS011;60995;52.154;4.498;2023-08-17T09:48:30;9.25;;;2.05;;
72413;SDS011;60995;52.154;4.498;2023-08-17T09:50:47;6.90;;;2.80;;
72413;SDS011;60995;52.154;4.498;2023-08-17T09:53:04;11.88;;;6.15;;
72413;SDS011;60995;52.154;4.498;2023-08-17T09:55:23;7.68;;;2.35;;
72413;SDS011;60995;52.154;4.498;2023-08-17T09:57:40;11.77;;;2.08;;
72413;SDS011;60995;52.154;4.498;2023-08-17T09:59:58;6.20;;;1.80;;
72413;SDS011;60995;52.154;4.498;2023-08-17T10:02:18;7.22;;;2.05;;
72413;SDS011;60995;52.154;4.498;2023-08-17T10:04:39;9.27;;;2.47;;
72413;SDS011;60995;52.154;4.498;2023-08-17T10:06:59;8.18;;;1.95;;
72413;SDS011;60995;52.154;4.498;2023-08-17T10:09:23;4.80;;;1.40;;
72413;SDS011;60995;52.154;4.498;2023-08-17T10:11:44;5.75;;;1.75;;
72413;SDS011;60995;52.154;4.498;2023-08-17T10:14:09;5.65;;;1.35;;
72413;SDS011;60995;52.154;4.498;2023-08-17T10:16:39;7.05;;;2.17;;
72413;SDS011;60995;52.154;4.498;2023-08-17T10:19:18;6.25;;;1.50;;
72413;SDS011;60995;52.154;4.498;2023-08-17T10:22:36;7.35;;;1.65;;
72413;SDS011;60995;52.154;4.498;2023-08-17T10:24:45;8.15;;;1.80;;
72413;SDS011;60995;52.154;4.498;2023-08-17T10:27:03;7.65;;;2.10;;
72413;SDS011;60995;52.154;4.498;2023-08-17T10:29:22;7.88;;;2.08;;
72413;SDS011;60995;52.154;4.498;2023-08-17T10:31:40;8.50;;;1.63;;
72413;SDS011;60995;52.154;4.498;2023-08-17T10:34:03;7.05;;;1.67;;
72413;SDS011;60995;52.154;4.498;2023-08-17T10:36:20;9.13;;;1.95;;
72413;SDS011;60995;52.154;4.498;2023-08-17T10:38:38;10.15;;;2.90;;
72413;SDS011;60995;52.154;4.498;2023-08-17T10:41:13;7.72;;;1.50;;
72413;SDS011;60995;52.154;4.498;2023-08-17T10:43:33;8.00;;;2.08;;
72413;SDS011;60995;52.154;4.498;2023-08-17T10:45:50;11.82;;;2.10;;
72413;SDS011;60995;52.154;4.498;2023-08-17T10:50:44;7.47;;;1.85;;
72413;SDS011;60995;52.154;4.498;2023-08-17T10:53:16;6.68;;;1.65;;
72413;SDS011;60995;52.154;4.498;2023-08-17T10:55:36;10.27;;;2.20;;
72413;SDS011;60995;52.154;4.498;2023-08-17T10:58:00;9.82;;;2.08;;
72413;SDS011;60995;52.154;4.498;2023-08-17T11:02:40;10.35;;;1.80;;
72413;SDS011;60995;52.154;4.498;2023-08-17T11:04:56;7.72;;;2.28;;
72413;SDS011;60995;52.154;4.498;2023-08-17T11:07:13;7.05;;;2.20;;
72413;SDS011;60995;52.154;4.498;2023-08-17T11:09:31;8.13;;;1.98;;
72413;SDS011;60995;52.154;4.498;2023-08-17T11:11:52;7.07;;;1.83;;
72413;SDS011;60995;52.154;4.498;2023-08-17T11:14:10;7.60;;;1.80;;
72413;SDS011;60995;52.154;4.498;2023-08-17T11:16:26;5.53;;;1.50;;
72413;SDS011;60995;52.154;4.498;2023-08-17T11:18:43;9.73;;;1.80;;
72413;SDS011;60995;52.154;4.498;2023-08-17T11:21:02;6.65;;;2.45;;
72413;SDS011;60995;52.154;4.498;2023-08-17T11:23:22;7.75;;;2.10;;
72413;SDS011;60995;52.154;4.498;2023-08-17T11:25:40;7.25;;;2.08;;
72413;SDS011;60995;52.154;4.498;2023-08-17T11:28:01;10.50;;;3.17;;
72413;SDS011;60995;52.154;4.498;2023-08-17T11:30:18;7.07;;;1.83;;
72413;SDS011;60995;52.154;4.498;2023-08-17T11:32:36;8.65;;;2.35;;
72413;SDS011;60995;52.154;4.498;2023-08-17T11:34:52;10.30;;;2.92;;
72413;SDS011;60995;52.154;4.498;2023-08-17T11:37:11;7.65;;;2.05;;
72413;SDS011;60995;52.154;4.498;2023-08-17T11:39:30;8.77;;;2.50;;
72413;SDS011;60995;52.154;4.498;2023-08-17T11:41:49;10.55;;;3.17;;
72413;SDS011;60995;52.154;4.498;2023-08-17T11:44:08;11.32;;;2.15;;
72413;SDS011;60995;52.154;4.498;2023-08-17T11:46:24;7.43;;;2.42;;
72413;SDS011;60995;52.154;4.498;2023-08-17T11:48:41;7.78;;;2.58;;
72413;SDS011;60995;52.154;4.498;2023-08-17T11:50:59;8.40;;;2.03;;
72413;SDS011;60995;52.154;4.498;2023-08-17T11:53:15;5.63;;;1.80;;
72413;SDS011;60995;52.154;4.498;2023-08-17T11:55:31;8.98;;;2.13;;
72413;SDS011;60995;52.154;4.498;2023-08-17T11:57:47;6.88;;;2.13;;
72413;SDS011;60995;52.154;4.498;2023-08-17T12:00:04;8.90;;;1.90;;
72413;SDS011;60995;52.154;4.498;2023-08-17T12:02:24;9.77;;;1.98;;
72413;SDS011;60995;52.154;4.498;2023-08-17T12:04:43;7.63;;;2.15;;
72413;SDS011;60995;52.154;4.498;2023-08-17T12:07:00;16.08;;;2.50;;
72413;SDS011;60995;52.154;4.498;2023-08-17T12:09:17;9.65;;;2.20;;
72413;SDS011;60995;52.154;4.498;2023-08-17T12:11:34;7.00;;;1.90;;
72413;SDS011;60995;52.154;4.498;2023-08-17T12:13:51;6.53;;;2.00;;
72413;SDS011;60995;52.154;4.498;2023-08-17T12:16:14;9.82;;;2.75;;
72413;SDS011;60995;52.154;4.498;2023-08-17T12:18:34;6.60;;;2.13;;
72413;SDS011;60995;52.154;4.498;2023-08-17T12:20:54;7.85;;;2.22;;
72413;SDS011;60995;52.154;4.498;2023-08-17T12:23:11;8.40;;;1.95;;
72413;SDS011;60995;52.154;4.498;2023-08-17T12:25:27;9.43;;;2.30;;
72413;SDS011;60995;52.154;4.498;2023-08-17T12:27:44;8.73;;;1.95;;
72413;SDS011;60995;52.154;4.498;2023-08-17T12:30:03;6.13;;;1.90;;
72413;SDS011;60995;52.154;4.498;2023-08-17T12:32:21;7.07;;;1.90;;
72413;SDS011;60995;52.154;4.498;2023-08-17T12:34:38;7.38;;;2.08;;
72413;SDS011;60995;52.154;4.498;2023-08-17T12:36:54;9.43;;;2.20;;
72413;SDS011;60995;52.154;4.498;2023-08-17T12:39:10;6.03;;;2.15;;
72413;SDS011;60995;52.154;4.498;2023-08-17T12:41:27;6.40;;;2.42;;
72413;SDS011;60995;52.154;4.498;2023-08-17T12:43:43;9.73;;;2.28;;
72413;SDS011;60995;52.154;4.498;2023-08-17T12:46:00;8.90;;;2.63;;
72413;SDS011;60995;52.154;4.498;2023-08-17T12:48:16;7.72;;;2.33;;
72413;SDS011;60995;52.154;4.498;2023-08-17T12:50:32;8.43;;;2.45;;
72413;SDS011;60995;52.154;4.498;2023-08-17T12:52:49;9.05;;;2.28;;
72413;SDS011;60995;52.154;4.498;2023-08-17T12:55:05;8.45;;;2.20;;
72413;SDS011;60995;52.154;4.498;2023-08-17T12:57:21;7.78;;;2.42;;
72413;SDS011;60995;52.154;4.498;2023-08-17T12:59:38;9.93;;;2.40;;
72413;SDS011;60995;52.154;4.498;2023-08-17T13:01:54;13.50;;;2.60;;
72413;SDS011;60995;52.154;4.498;2023-08-17T13:04:11;11.07;;;2.42;;
72413;SDS011;60995;52.154;4.498;2023-08-17T13:06:27;11.07;;;2.60;;
72413;SDS011;60995;52.154;4.498;2023-08-17T13:08:43;6.32;;;2.05;;
72413;SDS011;60995;52.154;4.498;2023-08-17T13:11:00;11.55;;;2.22;;
72413;SDS011;60995;52.154;4.498;2023-08-17T13:13:16;11.85;;;2.13;;
72413;SDS011;60995;52.154;4.498;2023-08-17T13:15:33;7.80;;;1.92;;
72413;SDS011;60995;52.154;4.498;2023-08-17T13:17:49;10.30;;;2.47;;
72413;SDS011;60995;52.154;4.498;2023-08-17T13:20:06;8.05;;;2.00;;
72413;SDS011;60995;52.154;4.498;2023-08-17T13:22:24;7.15;;;2.22;;
72413;SDS011;60995;52.154;4.498;2023-08-17T13:24:40;9.38;;;2.38;;
72413;SDS011;60995;52.154;4.498;2023-08-17T13:26:57;7.88;;;2.60;;
72413;SDS011;60995;52.154;4.498;2023-08-17T13:29:13;6.45;;;2.00;;
72413;SDS011;60995;52.154;4.498;2023-08-17T13:31:29;6.15;;;2.00;;
72413;SDS011;60995;52.154;4.498;2023-08-17T13:33:45;7.65;;;2.30;;
72413;SDS011;60995;52.154;4.498;2023-08-17T13:36:01;7.35;;;2.10;;
72413;SDS011;60995;52.154;4.498;2023-08-17T13:38:18;6.50;;;2.22;;
72413;SDS011;60995;52.154;4.498;2023-08-17T13:40:34;7.50;;;2.55;;
72413;SDS011;60995;52.154;4.498;2023-08-17T13:42:52;9.77;;;2.63;;
72413;SDS011;60995;52.154;4.498;2023-08-17T13:45:08;7.70;;;2.53;;
72413;SDS011;60995;52.154;4.498;2023-08-17T13:47:25;10.32;;;2.67;;
72413;SDS011;60995;52.154;4.498;2023-08-17T13:49:41;8.23;;;2.15;;
72413;SDS011;60995;52.154;4.498;2023-08-17T13:51:57;11.63;;;2.67;;
72413;SDS011;60995;52.154;4.498;2023-08-17T13:54:14;8.65;;;2.58;;
72413;SDS011;60995;52.154;4.498;2023-08-17T13:56:30;10.18;;;2.83;;
72413;SDS011;60995;52.154;4.498;2023-08-17T13:58:46;7.82;;;2.70;;